sensor_id;sensor_type;location;lat;lon;timestamp;temperature;humidity
17988;DHT22;9119;50.932;5.342;2023-04-25T00:01:15;8.70;99.90
17988;DHT22;9119;50.932;5.342;2023-04-25T00:03:40;8.80;99.90
17988;DHT22;9119;50.932;5.342;2023-04-25T00:06:06;8.80;99.90
17988;DHT22;9119;50.932;5.342;2023-04-25T00:08:33;8.80;99.90
17988;DHT22;9119;50.932;5.342;2023-04-25T00:10:59;8.80;99.90
17988;DHT22;9119;50.932;5.342;2023-04-25T00:13:25;8.70;99.90
17988;DHT22;9119;50.932;5.342;2023-04-25T00:15:52;8.70;99.90
17988;DHT22;9119;50.932;5.342;2023-04-25T00:18:19;8.80;99.90
17988;DHT22;9119;50.932;5.342;2023-04-25T00:20:45;8.90;99.90
17988;DHT22;9119;50.932;5.342;2023-04-25T00:23:16;9.00;99.90
17988;DHT22;9119;50.932;5.342;2023-04-25T00:25:49;9.00;99.90
17988;DHT22;9119;50.932;5.342;2023-04-25T00:28:15;8.80;99.90
17988;DHT22;9119;50.932;5.342;2023-04-25T00:30:41;8.70;99.90
17988;DHT22;9119;50.932;5.342;2023-04-25T00:33:07;8.60;99.90
17988;DHT22;9119;50.932;5.342;2023-04-25T00:35:33;8.70;99.90
17988;DHT22;9119;50.932;5.342;2023-04-25T00:37:59;8.80;99.90
17988;DHT22;9119;50.932;5.342;2023-04-25T00:40:25;8.80;99.90
17988;DHT22;9119;50.932;5.342;2023-04-25T00:42:52;8.80;99.90
17988;DHT22;9119;50.932;5.342;2023-04-25T00:45:18;8.70;99.90
17988;DHT22;9119;50.932;5.342;2023-04-25T00:47:44;8.60;99.90
17988;DHT22;9119;50.932;5.342;2023-04-25T00:50:11;8.70;99.90
17988;DHT22;9119;50.932;5.342;2023-04-25T00:52:41;8.70;99.90
17988;DHT22;9119;50.932;5.342;2023-04-25T00:55:08;8.80;99.90
17988;DHT22;9119;50.932;5.342;2023-04-25T00:57:35;8.70;99.90
17988;DHT22;9119;50.932;5.342;2023-04-25T01:00:03;8.70;99.90
17988;DHT22;9119;50.932;5.342;2023-04-25T01:02:29;8.60;99.90
17988;DHT22;9119;50.932;5.342;2023-04-25T01:04:55;8.60;99.90
17988;DHT22;9119;50.932;5.342;2023-04-25T01:07:21;8.60;99.90
17988;DHT22;9119;50.932;5.342;2023-04-25T01:09:46;8.50;99.90
17988;DHT22;9119;50.932;5.342;2023-04-25T01:12:12;8.60;99.90
17988;DHT22;9119;50.932;5.342;2023-04-25T01:14:38;8.70;99.90
17988;DHT22;9119;50.932;5.342;2023-04-25T01:17:04;8.70;99.90
17988;DHT22;9119;50.932;5.342;2023-04-25T01:19:30;8.50;99.90
17988;DHT22;9119;50.932;5.342;2023-04-25T01:21:56;8.50;99.90
17988;DHT22;9119;50.932;5.342;2023-04-25T01:24:22;8.40;99.90
17988;DHT22;9119;50.932;5.342;2023-04-25T01:26:48;8.40;99.90
17988;DHT22;9119;50.932;5.342;2023-04-25T01:29:17;8.30;99.90
17988;DHT22;9119;50.932;5.342;2023-04-25T01:31:43;8.40;99.90
17988;DHT22;9119;50.932;5.342;2023-04-25T01:34:10;8.30;99.90
17988;DHT22;9119;50.932;5.342;2023-04-25T01:36:35;8.20;99.90
17988;DHT22;9119;50.932;5.342;2023-04-25T01:39:01;8.30;99.90
17988;DHT22;9119;50.932;5.342;2023-04-25T01:41:27;8.40;99.90
17988;DHT22;9119;50.932;5.342;2023-04-25T01:43:53;8.40;99.90
17988;DHT22;9119;50.932;5.342;2023-04-25T01:46:19;8.30;99.90
17988;DHT22;9119;50.932;5.342;2023-04-25T01:48:45;8.20;99.90
17988;DHT22;9119;50.932;5.342;2023-04-25T01:51:12;8.20;99.90
17988;DHT22;9119;50.932;5.342;2023-04-25T01:53:38;8.10;99.90
17988;DHT22;9119;50.932;5.342;2023-04-25T01:56:04;8.20;99.90
17988;DHT22;9119;50.932;5.342;2023-04-25T01:58:30;8.20;99.90
17988;DHT22;9119;50.932;5.342;2023-04-25T02:00:56;8.40;99.90
17988;DHT22;9119;50.932;5.342;2023-04-25T02:03:22;8.30;99.90
17988;DHT22;9119;50.932;5.342;2023-04-25T02:05:47;8.20;99.90
17988;DHT22;9119;50.932;5.342;2023-04-25T02:08:13;8.20;99.90
17988;DHT22;9119;50.932;5.342;2023-04-25T02:10:39;8.10;99.90
17988;DHT22;9119;50.932;5.342;2023-04-25T02:13:05;8.10;99.90
17988;DHT22;9119;50.932;5.342;2023-04-25T02:15:31;8.10;99.90
17988;DHT22;9119;50.932;5.342;2023-04-25T02:17:57;8.10;99.90
17988;DHT22;9119;50.932;5.342;2023-04-25T02:20:24;8.30;99.90
17988;DHT22;9119;50.932;5.342;2023-04-25T02:22:50;8.40;99.90
17988;DHT22;9119;50.932;5.342;2023-04-25T02:25:18;8.20;99.90
17988;DHT22;9119;50.932;5.342;2023-04-25T02:27:45;8.10;99.90
17988;DHT22;9119;50.932;5.342;2023-04-25T02:30:12;8.20;99.90
17988;DHT22;9119;50.932;5.342;2023-04-25T02:32:38;8.30;99.90
17988;DHT22;9119;50.932;5.342;2023-04-25T02:35:05;8.30;99.90
17988;DHT22;9119;50.932;5.342;2023-04-25T02:37:35;8.30;99.90
17988;DHT22;9119;50.932;5.342;2023-04-25T02:40:01;8.40;99.90
17988;DHT22;9119;50.932;5.342;2023-04-25T02:42:28;8.40;99.90
17988;DHT22;9119;50.932;5.342;2023-04-25T02:44:54;8.40;99.90
17988;DHT22;9119;50.932;5.342;2023-04-25T02:47:20;8.20;99.90
17988;DHT22;9119;50.932;5.342;2023-04-25T02:49:45;8.10;99.90
17988;DHT22;9119;50.932;5.342;2023-04-25T02:52:11;8.10;99.90
17988;DHT22;9119;50.932;5.342;2023-04-25T02:54:39;8.00;99.90
17988;DHT22;9119;50.932;5.342;2023-04-25T02:57:05;8.10;99.90
17988;DHT22;9119;50.932;5.342;2023-04-25T02:59:31;8.20;99.90
17988;DHT22;9119;50.932;5.342;2023-04-25T03:01:57;8.10;99.90
17988;DHT22;9119;50.932;5.342;2023-04-25T03:04:23;7.90;99.90
17988;DHT22;9119;50.932;5.342;2023-04-25T03:06:50;7.90;99.90
17988;DHT22;9119;50.932;5.342;2023-04-25T03:09:16;7.80;99.90
17988;DHT22;9119;50.932;5.342;2023-04-25T03:11:41;7.90;99.90
17988;DHT22;9119;50.932;5.342;2023-04-25T03:14:07;7.90;99.90
17988;DHT22;9119;50.932;5.342;2023-04-25T03:16:33;7.90;99.90
17988;DHT22;9119;50.932;5.342;2023-04-25T03:18:59;7.90;99.90
17988;DHT22;9119;50.932;5.342;2023-04-25T03:21:25;7.80;99.90
17988;DHT22;9119;50.932;5.342;2023-04-25T03:23:51;7.90;99.90
17988;DHT22;9119;50.932;5.342;2023-04-25T03:26:17;7.90;99.90
17988;DHT22;9119;50.932;5.342;2023-04-25T03:28:43;7.90;99.90
17988;DHT22;9119;50.932;5.342;2023-04-25T03:31:08;7.90;99.90
17988;DHT22;9119;50.932;5.342;2023-04-25T03:33:34;7.70;99.90
17988;DHT22;9119;50.932;5.342;2023-04-25T03:36:00;7.70;99.90
17988;DHT22;9119;50.932;5.342;2023-04-25T03:38:26;7.80;99.90
17988;DHT22;9119;50.932;5.342;2023-04-25T03:40:51;7.80;99.90
17988;DHT22;9119;50.932;5.342;2023-04-25T03:43:18;7.60;99.90
17988;DHT22;9119;50.932;5.342;2023-04-25T03:45:44;7.60;99.90
17988;DHT22;9119;50.932;5.342;2023-04-25T03:48:09;7.70;99.90
17988;DHT22;9119;50.932;5.342;2023-04-25T03:50:35;7.70;99.90
17988;DHT22;9119;50.932;5.342;2023-04-25T03:53:01;7.80;99.90
17988;DHT22;9119;50.932;5.342;2023-04-25T03:55:26;7.90;99.90
17988;DHT22;9119;50.932;5.342;2023-04-25T03:57:52;7.80;99.90
17988;DHT22;9119;50.932;5.342;2023-04-25T04:00:18;7.80;99.90
17988;DHT22;9119;50.932;5.342;2023-04-25T04:02:43;7.80;99.90
17988;DHT22;9119;50.932;5.342;2023-04-25T04:05:09;7.70;99.90
17988;DHT22;9119;50.932;5.342;2023-04-25T04:07:35;7.60;99.90
17988;DHT22;9119;50.932;5.342;2023-04-25T04:10:06;7.50;99.90
17988;DHT22;9119;50.932;5.342;2023-04-25T04:12:33;7.30;99.90
17988;DHT22;9119;50.932;5.342;2023-04-25T04:14:59;7.20;99.90
17988;DHT22;9119;50.932;5.342;2023-04-25T04:17:24;7.20;99.90
17988;DHT22;9119;50.932;5.342;2023-04-25T04:19:50;7.20;99.90
17988;DHT22;9119;50.932;5.342;2023-04-25T04:22:16;7.20;99.90
17988;DHT22;9119;50.932;5.342;2023-04-25T04:24:42;7.10;99.90
17988;DHT22;9119;50.932;5.342;2023-04-25T04:27:11;7.20;99.90
17988;DHT22;9119;50.932;5.342;2023-04-25T04:29:38;7.10;99.90
17988;DHT22;9119;50.932;5.342;2023-04-25T04:32:04;7.00;99.90
17988;DHT22;9119;50.932;5.342;2023-04-25T04:34:30;6.90;99.90
17988;DHT22;9119;50.932;5.342;2023-04-25T04:36:56;6.90;99.90
17988;DHT22;9119;50.932;5.342;2023-04-25T04:39:22;7.00;99.90
17988;DHT22;9119;50.932;5.342;2023-04-25T04:41:48;7.10;99.90
17988;DHT22;9119;50.932;5.342;2023-04-25T04:44:14;7.20;99.90
17988;DHT22;9119;50.932;5.342;2023-04-25T04:46:40;7.20;99.90
17988;DHT22;9119;50.932;5.342;2023-04-25T04:49:09;7.20;99.90
17988;DHT22;9119;50.932;5.342;2023-04-25T04:51:34;7.40;99.90
17988;DHT22;9119;50.932;5.342;2023-04-25T04:54:00;7.40;99.90
17988;DHT22;9119;50.932;5.342;2023-04-25T04:56:28;7.50;99.90
17988;DHT22;9119;50.932;5.342;2023-04-25T04:58:57;7.50;99.90
17988;DHT22;9119;50.932;5.342;2023-04-25T05:01:23;7.50;99.90
17988;DHT22;9119;50.932;5.342;2023-04-25T05:03:49;7.40;99.90
17988;DHT22;9119;50.932;5.342;2023-04-25T05:06:16;7.30;99.90
17988;DHT22;9119;50.932;5.342;2023-04-25T05:08:42;7.40;99.90
17988;DHT22;9119;50.932;5.342;2023-04-25T05:11:08;7.30;99.90
17988;DHT22;9119;50.932;5.342;2023-04-25T05:13:33;7.40;99.90
17988;DHT22;9119;50.932;5.342;2023-04-25T05:15:59;7.40;99.90
17988;DHT22;9119;50.932;5.342;2023-04-25T05:18:25;7.50;99.90
17988;DHT22;9119;50.932;5.342;2023-04-25T05:20:51;7.60;99.90
17988;DHT22;9119;50.932;5.342;2023-04-25T05:23:17;7.60;99.90
17988;DHT22;9119;50.932;5.342;2023-04-25T05:25:42;7.50;99.90
17988;DHT22;9119;50.932;5.342;2023-04-25T05:28:08;7.50;99.90
17988;DHT22;9119;50.932;5.342;2023-04-25T05:30:34;7.50;99.90
17988;DHT22;9119;50.932;5.342;2023-04-25T05:33:00;7.60;99.90
17988;DHT22;9119;50.932;5.342;2023-04-25T05:35:26;7.60;99.90
17988;DHT22;9119;50.932;5.342;2023-04-25T05:37:51;7.50;99.90
17988;DHT22;9119;50.932;5.342;2023-04-25T05:40:17;7.60;99.90
17988;DHT22;9119;50.932;5.342;2023-04-25T05:42:43;7.60;99.90
17988;DHT22;9119;50.932;5.342;2023-04-25T05:45:09;7.50;99.90
17988;DHT22;9119;50.932;5.342;2023-04-25T05:47:35;7.50;99.90
17988;DHT22;9119;50.932;5.342;2023-04-25T05:50:00;7.40;99.90
17988;DHT22;9119;50.932;5.342;2023-04-25T05:52:26;7.50;99.90
17988;DHT22;9119;50.932;5.342;2023-04-25T05:54:52;7.60;99.90
17988;DHT22;9119;50.932;5.342;2023-04-25T05:57:25;7.80;99.90
17988;DHT22;9119;50.932;5.342;2023-04-25T05:59:51;8.00;99.90
17988;DHT22;9119;50.932;5.342;2023-04-25T06:02:17;8.00;99.90
17988;DHT22;9119;50.932;5.342;2023-04-25T06:04:43;8.00;99.90
17988;DHT22;9119;50.932;5.342;2023-04-25T06:07:09;8.10;99.90
17988;DHT22;9119;50.932;5.342;2023-04-25T06:09:35;8.20;99.90
17988;DHT22;9119;50.932;5.342;2023-04-25T06:12:01;8.20;99.90
17988;DHT22;9119;50.932;5.342;2023-04-25T06:14:27;8.20;99.90
17988;DHT22;9119;50.932;5.342;2023-04-25T06:16:53;8.20;99.90
17988;DHT22;9119;50.932;5.342;2023-04-25T06:19:18;8.00;99.90
17988;DHT22;9119;50.932;5.342;2023-04-25T06:21:44;8.00;99.90
17988;DHT22;9119;50.932;5.342;2023-04-25T06:24:10;8.20;99.90
17988;DHT22;9119;50.932;5.342;2023-04-25T06:26:36;8.20;99.90
17988;DHT22;9119;50.932;5.342;2023-04-25T06:29:01;8.20;99.90
17988;DHT22;9119;50.932;5.342;2023-04-25T06:31:27;8.00;99.90
17988;DHT22;9119;50.932;5.342;2023-04-25T06:33:54;8.10;99.90
17988;DHT22;9119;50.932;5.342;2023-04-25T06:36:23;8.30;99.90
17988;DHT22;9119;50.932;5.342;2023-04-25T06:38:51;8.50;99.90
17988;DHT22;9119;50.932;5.342;2023-04-25T06:41:17;8.60;99.90
17988;DHT22;9119;50.932;5.342;2023-04-25T06:43:43;8.50;99.90
17988;DHT22;9119;50.932;5.342;2023-04-25T06:46:09;8.50;99.90
17988;DHT22;9119;50.932;5.342;2023-04-25T06:48:34;8.30;99.90
17988;DHT22;9119;50.932;5.342;2023-04-25T06:51:01;8.20;99.90
17988;DHT22;9119;50.932;5.342;2023-04-25T06:53:27;8.30;99.90
17988;DHT22;9119;50.932;5.342;2023-04-25T06:55:53;8.50;99.90
17988;DHT22;9119;50.932;5.342;2023-04-25T06:58:19;8.60;99.90
17988;DHT22;9119;50.932;5.342;2023-04-25T07:00:44;8.30;99.90
17988;DHT22;9119;50.932;5.342;2023-04-25T07:03:10;8.20;99.90
17988;DHT22;9119;50.932;5.342;2023-04-25T07:05:36;8.30;99.90
17988;DHT22;9119;50.932;5.342;2023-04-25T07:08:01;8.30;99.90
17988;DHT22;9119;50.932;5.342;2023-04-25T07:10:28;8.40;99.90
17988;DHT22;9119;50.932;5.342;2023-04-25T07:12:54;8.50;99.90
17988;DHT22;9119;50.932;5.342;2023-04-25T07:15:19;8.80;99.90
17988;DHT22;9119;50.932;5.342;2023-04-25T07:17:45;8.60;99.90
17988;DHT22;9119;50.932;5.342;2023-04-25T07:20:11;8.50;99.90
17988;DHT22;9119;50.932;5.342;2023-04-25T07:22:37;8.70;99.90
17988;DHT22;9119;50.932;5.342;2023-04-25T07:25:03;8.70;99.90
17988;DHT22;9119;50.932;5.342;2023-04-25T07:27:30;9.00;99.90
17988;DHT22;9119;50.932;5.342;2023-04-25T07:29:56;8.60;99.90
17988;DHT22;9119;50.932;5.342;2023-04-25T07:32:22;8.70;99.90
17988;DHT22;9119;50.932;5.342;2023-04-25T07:34:47;8.80;99.90
17988;DHT22;9119;50.932;5.342;2023-04-25T07:37:13;8.70;99.90
17988;DHT22;9119;50.932;5.342;2023-04-25T07:39:39;8.70;99.90
17988;DHT22;9119;50.932;5.342;2023-04-25T07:42:05;8.90;99.90
17988;DHT22;9119;50.932;5.342;2023-04-25T07:44:34;9.10;99.90
17988;DHT22;9119;50.932;5.342;2023-04-25T07:47:05;8.90;99.90
17988;DHT22;9119;50.932;5.342;2023-04-25T07:49:35;8.90;99.90
17988;DHT22;9119;50.932;5.342;2023-04-25T07:52:02;9.00;99.90
17988;DHT22;9119;50.932;5.342;2023-04-25T07:54:28;8.90;99.90
17988;DHT22;9119;50.932;5.342;2023-04-25T07:56:55;9.00;99.90
17988;DHT22;9119;50.932;5.342;2023-04-25T07:59:23;8.80;99.90
17988;DHT22;9119;50.932;5.342;2023-04-25T08:01:49;8.90;99.90
17988;DHT22;9119;50.932;5.342;2023-04-25T08:04:16;8.90;99.90
17988;DHT22;9119;50.932;5.342;2023-04-25T08:06:42;9.00;99.90
17988;DHT22;9119;50.932;5.342;2023-04-25T08:09:08;9.10;99.90
17988;DHT22;9119;50.932;5.342;2023-04-25T08:11:35;9.10;99.90
17988;DHT22;9119;50.932;5.342;2023-04-25T08:14:01;8.80;99.90
17988;DHT22;9119;50.932;5.342;2023-04-25T08:16:27;8.90;99.90
17988;DHT22;9119;50.932;5.342;2023-04-25T08:18:59;9.20;99.90
17988;DHT22;9119;50.932;5.342;2023-04-25T08:21:24;9.10;99.90
17988;DHT22;9119;50.932;5.342;2023-04-25T08:23:52;9.20;99.90
17988;DHT22;9119;50.932;5.342;2023-04-25T08:26:18;9.20;99.90
17988;DHT22;9119;50.932;5.342;2023-04-25T08:28:43;9.20;99.90
17988;DHT22;9119;50.932;5.342;2023-04-25T08:31:09;9.20;99.90
17988;DHT22;9119;50.932;5.342;2023-04-25T08:33:35;9.30;99.90
17988;DHT22;9119;50.932;5.342;2023-04-25T08:36:01;9.40;99.90
17988;DHT22;9119;50.932;5.342;2023-04-25T08:38:27;9.40;99.90
17988;DHT22;9119;50.932;5.342;2023-04-25T08:40:54;9.50;99.90
17988;DHT22;9119;50.932;5.342;2023-04-25T08:43:20;9.60;99.90
17988;DHT22;9119;50.932;5.342;2023-04-25T08:45:46;9.50;99.90
17988;DHT22;9119;50.932;5.342;2023-04-25T08:48:16;9.30;99.90
17988;DHT22;9119;50.932;5.342;2023-04-25T08:50:53;9.10;99.90
17988;DHT22;9119;50.932;5.342;2023-04-25T08:53:25;9.00;99.90
17988;DHT22;9119;50.932;5.342;2023-04-25T08:55:54;8.90;99.90
17988;DHT22;9119;50.932;5.342;2023-04-25T08:58:20;8.80;99.90
17988;DHT22;9119;50.932;5.342;2023-04-25T09:00:47;9.00;99.90
17988;DHT22;9119;50.932;5.342;2023-04-25T09:03:13;9.20;99.90
17988;DHT22;9119;50.932;5.342;2023-04-25T09:05:41;9.00;99.90
17988;DHT22;9119;50.932;5.342;2023-04-25T09:08:07;9.00;99.90
17988;DHT22;9119;50.932;5.342;2023-04-25T09:10:33;9.10;99.90
17988;DHT22;9119;50.932;5.342;2023-04-25T09:13:25;9.00;99.90
17988;DHT22;9119;50.932;5.342;2023-04-25T09:15:54;9.20;99.90
17988;DHT22;9119;50.932;5.342;2023-04-25T09:20:54;9.40;99.90
17988;DHT22;9119;50.932;5.342;2023-04-25T09:23:20;9.50;99.90
17988;DHT22;9119;50.932;5.342;2023-04-25T09:25:50;9.90;99.90
17988;DHT22;9119;50.932;5.342;2023-04-25T09:28:17;9.70;99.90
17988;DHT22;9119;50.932;5.342;2023-04-25T09:30:48;9.70;99.90
17988;DHT22;9119;50.932;5.342;2023-04-25T09:33:13;10.10;99.90
17988;DHT22;9119;50.932;5.342;2023-04-25T09:35:42;10.90;99.90
17988;DHT22;9119;50.932;5.342;2023-04-25T09:38:15;11.50;99.90
17988;DHT22;9119;50.932;5.342;2023-04-25T09:40:47;12.40;99.90
17988;DHT22;9119;50.932;5.342;2023-04-25T09:43:22;12.00;99.90
17988;DHT22;9119;50.932;5.342;2023-04-25T09:45:50;12.50;99.90
17988;DHT22;9119;50.932;5.342;2023-04-25T09:48:27;13.00;99.90
17988;DHT22;9119;50.932;5.342;2023-04-25T09:51:13;12.10;99.90
17988;DHT22;9119;50.932;5.342;2023-04-25T09:53:44;11.10;99.90
17988;DHT22;9119;50.932;5.342;2023-04-25T09:56:12;11.00;99.90
17988;DHT22;9119;50.932;5.342;2023-04-25T09:58:40;11.30;99.90
17988;DHT22;9119;50.932;5.342;2023-04-25T10:01:07;11.40;99.90
17988;DHT22;9119;50.932;5.342;2023-04-25T10:03:35;11.60;99.90
17988;DHT22;9119;50.932;5.342;2023-04-25T10:06:03;11.50;99.90
17988;DHT22;9119;50.932;5.342;2023-04-25T10:08:37;11.40;99.90
17988;DHT22;9119;50.932;5.342;2023-04-25T10:11:04;11.10;99.90
17988;DHT22;9119;50.932;5.342;2023-04-25T10:13:31;10.90;99.90
17988;DHT22;9119;50.932;5.342;2023-04-25T10:15:58;11.10;99.90
17988;DHT22;9119;50.932;5.342;2023-04-25T10:18:25;11.20;99.90
17988;DHT22;9119;50.932;5.342;2023-04-25T10:21:01;11.10;99.90
17988;DHT22;9119;50.932;5.342;2023-04-25T10:23:27;11.10;99.90
17988;DHT22;9119;50.932;5.342;2023-04-25T10:25:55;10.80;99.90
17988;DHT22;9119;50.932;5.342;2023-04-25T10:28:24;11.00;99.90
17988;DHT22;9119;50.932;5.342;2023-04-25T10:31:03;10.70;99.90
17988;DHT22;9119;50.932;5.342;2023-04-25T10:33:40;10.50;99.90
17988;DHT22;9119;50.932;5.342;2023-04-25T10:36:13;10.30;99.90
17988;DHT22;9119;50.932;5.342;2023-04-25T10:38:39;9.70;99.90
17988;DHT22;9119;50.932;5.342;2023-04-25T10:41:07;9.50;99.90
17988;DHT22;9119;50.932;5.342;2023-04-25T10:43:43;9.50;99.90
17988;DHT22;9119;50.932;5.342;2023-04-25T10:51:31;12.20;99.90
17988;DHT22;9119;50.932;5.342;2023-04-25T10:56:29;10.90;99.90
17988;DHT22;9119;50.932;5.342;2023-04-25T10:59:07;10.80;99.90
17988;DHT22;9119;50.932;5.342;2023-04-25T11:01:49;10.70;99.90
17988;DHT22;9119;50.932;5.342;2023-04-25T11:04:34;10.70;99.90
17988;DHT22;9119;50.932;5.342;2023-04-25T11:07:13;10.80;99.90
17988;DHT22;9119;50.932;5.342;2023-04-25T11:09:41;10.60;99.90
17988;DHT22;9119;50.932;5.342;2023-04-25T11:12:08;10.50;99.90
17988;DHT22;9119;50.932;5.342;2023-04-25T11:14:35;10.60;99.90
17988;DHT22;9119;50.932;5.342;2023-04-25T11:17:00;10.50;99.90
17988;DHT22;9119;50.932;5.342;2023-04-25T11:19:28;10.70;99.90
17988;DHT22;9119;50.932;5.342;2023-04-25T11:21:58;10.90;99.90
17988;DHT22;9119;50.932;5.342;2023-04-25T11:24:31;11.50;99.90
17988;DHT22;9119;50.932;5.342;2023-04-25T11:27:01;11.40;99.90
17988;DHT22;9119;50.932;5.342;2023-04-25T11:29:31;11.30;99.90
17988;DHT22;9119;50.932;5.342;2023-04-25T11:31:57;11.40;99.90
17988;DHT22;9119;50.932;5.342;2023-04-25T11:34:24;12.10;99.90
17988;DHT22;9119;50.932;5.342;2023-04-25T11:36:51;12.20;99.90
17988;DHT22;9119;50.932;5.342;2023-04-25T11:39:18;12.80;99.90
17988;DHT22;9119;50.932;5.342;2023-04-25T11:41:44;13.60;99.90
17988;DHT22;9119;50.932;5.342;2023-04-25T11:44:11;12.70;99.90
17988;DHT22;9119;50.932;5.342;2023-04-25T11:46:36;12.60;99.90
17988;DHT22;9119;50.932;5.342;2023-04-25T11:49:02;12.60;99.90
17988;DHT22;9119;50.932;5.342;2023-04-25T11:51:29;12.40;99.90
17988;DHT22;9119;50.932;5.342;2023-04-25T11:53:56;12.00;99.90
17988;DHT22;9119;50.932;5.342;2023-04-25T11:56:22;11.50;99.90
17988;DHT22;9119;50.932;5.342;2023-04-25T11:59:04;11.70;99.90
17988;DHT22;9119;50.932;5.342;2023-04-25T12:01:35;11.60;99.90
17988;DHT22;9119;50.932;5.342;2023-04-25T12:04:13;11.60;99.90
17988;DHT22;9119;50.932;5.342;2023-04-25T12:06:39;11.60;99.90
17988;DHT22;9119;50.932;5.342;2023-04-25T12:09:08;12.40;99.90
17988;DHT22;9119;50.932;5.342;2023-04-25T12:11:45;13.70;99.90
17988;DHT22;9119;50.932;5.342;2023-04-25T12:14:12;14.40;99.90
17988;DHT22;9119;50.932;5.342;2023-04-25T12:16:46;14.60;99.90
17988;DHT22;9119;50.932;5.342;2023-04-25T12:19:19;13.80;99.90
17988;DHT22;9119;50.932;5.342;2023-04-25T12:21:46;12.20;99.90
17988;DHT22;9119;50.932;5.342;2023-04-25T12:24:25;11.70;99.90
17988;DHT22;9119;50.932;5.342;2023-04-25T12:27:00;11.60;99.90
17988;DHT22;9119;50.932;5.342;2023-04-25T12:29:28;11.40;99.90
17988;DHT22;9119;50.932;5.342;2023-04-25T12:31:56;10.50;99.90
17988;DHT22;9119;50.932;5.342;2023-04-25T12:34:23;10.10;99.90
17988;DHT22;9119;50.932;5.342;2023-04-25T12:36:51;10.00;99.90
17988;DHT22;9119;50.932;5.342;2023-04-25T12:39:20;10.00;99.90
17988;DHT22;9119;50.932;5.342;2023-04-25T12:41:51;9.90;99.90
17988;DHT22;9119;50.932;5.342;2023-04-25T12:44:20;10.00;99.90
17988;DHT22;9119;50.932;5.342;2023-04-25T12:46:47;9.80;99.90
17988;DHT22;9119;50.932;5.342;2023-04-25T12:49:13;9.90;99.90
17988;DHT22;9119;50.932;5.342;2023-04-25T12:51:39;9.90;99.90
17988;DHT22;9119;50.932;5.342;2023-04-25T12:54:05;9.90;99.90
17988;DHT22;9119;50.932;5.342;2023-04-25T12:56:32;9.90;99.90
17988;DHT22;9119;50.932;5.342;2023-04-25T12:58:58;10.10;99.90
17988;DHT22;9119;50.932;5.342;2023-04-25T13:01:25;10.20;99.90
17988;DHT22;9119;50.932;5.342;2023-04-25T13:03:52;10.20;99.90
17988;DHT22;9119;50.932;5.342;2023-04-25T13:06:19;10.50;99.90
17988;DHT22;9119;50.932;5.342;2023-04-25T13:08:45;10.80;99.90
17988;DHT22;9119;50.932;5.342;2023-04-25T13:11:11;11.10;99.90
17988;DHT22;9119;50.932;5.342;2023-04-25T13:13:38;11.30;99.90
17988;DHT22;9119;50.932;5.342;2023-04-25T13:16:05;11.50;99.90
17988;DHT22;9119;50.932;5.342;2023-04-25T13:18:31;11.80;99.90
17988;DHT22;9119;50.932;5.342;2023-04-25T13:20:58;11.90;99.90
17988;DHT22;9119;50.932;5.342;2023-04-25T13:23:26;11.70;99.90
17988;DHT22;9119;50.932;5.342;2023-04-25T13:25:52;11.20;99.90
17988;DHT22;9119;50.932;5.342;2023-04-25T13:28:17;11.00;99.90
17988;DHT22;9119;50.932;5.342;2023-04-25T13:30:44;10.90;99.90
17988;DHT22;9119;50.932;5.342;2023-04-25T13:33:09;10.90;99.90
17988;DHT22;9119;50.932;5.342;2023-04-25T13:35:36;10.80;99.90
17988;DHT22;9119;50.932;5.342;2023-04-25T13:38:02;10.80;99.90
17988;DHT22;9119;50.932;5.342;2023-04-25T13:40:28;10.80;99.90
17988;DHT22;9119;50.932;5.342;2023-04-25T13:42:55;10.90;99.90
17988;DHT22;9119;50.932;5.342;2023-04-25T13:45:21;11.00;99.90
17988;DHT22;9119;50.932;5.342;2023-04-25T13:47:46;10.80;99.90
17988;DHT22;9119;50.932;5.342;2023-04-25T13:50:12;10.90;99.90
17988;DHT22;9119;50.932;5.342;2023-04-25T13:52:39;10.90;99.90
17988;DHT22;9119;50.932;5.342;2023-04-25T13:55:06;11.30;99.90
17988;DHT22;9119;50.932;5.342;2023-04-25T13:57:32;11.40;99.90
17988;DHT22;9119;50.932;5.342;2023-04-25T13:59:59;11.30;99.90
17988;DHT22;9119;50.932;5.342;2023-04-25T14:02:25;11.10;99.90
17988;DHT22;9119;50.932;5.342;2023-04-25T14:04:51;11.00;99.90
17988;DHT22;9119;50.932;5.342;2023-04-25T14:07:18;11.30;99.90
17988;DHT22;9119;50.932;5.342;2023-04-25T14:09:46;11.50;99.90
17988;DHT22;9119;50.932;5.342;2023-04-25T14:12:12;11.40;99.90
17988;DHT22;9119;50.932;5.342;2023-04-25T14:14:38;11.30;99.90
17988;DHT22;9119;50.932;5.342;2023-04-25T14:17:04;11.20;99.90
17988;DHT22;9119;50.932;5.342;2023-04-25T14:19:29;10.70;99.90
17988;DHT22;9119;50.932;5.342;2023-04-25T14:21:55;10.80;99.90
17988;DHT22;9119;50.932;5.342;2023-04-25T14:24:21;10.80;99.90
17988;DHT22;9119;50.932;5.342;2023-04-25T14:26:47;11.00;99.90
17988;DHT22;9119;50.932;5.342;2023-04-25T14:29:13;10.90;99.90
17988;DHT22;9119;50.932;5.342;2023-04-25T14:31:39;11.00;99.90
17988;DHT22;9119;50.932;5.342;2023-04-25T14:34:05;11.20;99.90
17988;DHT22;9119;50.932;5.342;2023-04-25T14:36:31;11.20;99.90
17988;DHT22;9119;50.932;5.342;2023-04-25T14:38:57;11.00;99.90
17988;DHT22;9119;50.932;5.342;2023-04-25T14:41:24;11.10;99.90
17988;DHT22;9119;50.932;5.342;2023-04-25T14:43:50;11.10;99.90
17988;DHT22;9119;50.932;5.342;2023-04-25T14:46:16;10.90;99.90
17988;DHT22;9119;50.932;5.342;2023-04-25T14:48:42;10.80;99.90
17988;DHT22;9119;50.932;5.342;2023-04-25T14:51:08;10.70;99.90
17988;DHT22;9119;50.932;5.342;2023-04-25T14:53:34;10.70;99.90
17988;DHT22;9119;50.932;5.342;2023-04-25T14:55:59;10.90;99.90
17988;DHT22;9119;50.932;5.342;2023-04-25T14:58:25;11.10;99.90
17988;DHT22;9119;50.932;5.342;2023-04-25T15:00:51;11.40;99.90
17988;DHT22;9119;50.932;5.342;2023-04-25T15:03:17;11.50;99.90
17988;DHT22;9119;50.932;5.342;2023-04-25T15:05:43;11.50;99.90
17988;DHT22;9119;50.932;5.342;2023-04-25T15:08:12;11.40;99.90
17988;DHT22;9119;50.932;5.342;2023-04-25T15:10:37;11.40;99.90
17988;DHT22;9119;50.932;5.342;2023-04-25T15:13:03;11.20;99.90
17988;DHT22;9119;50.932;5.342;2023-04-25T15:15:29;11.10;99.90
17988;DHT22;9119;50.932;5.342;2023-04-25T15:17:56;11.00;99.90
17988;DHT22;9119;50.932;5.342;2023-04-25T15:20:23;10.90;99.90
17988;DHT22;9119;50.932;5.342;2023-04-25T15:22:50;10.80;99.90
17988;DHT22;9119;50.932;5.342;2023-04-25T15:25:16;10.90;99.90
17988;DHT22;9119;50.932;5.342;2023-04-25T15:27:45;11.10;99.90
17988;DHT22;9119;50.932;5.342;2023-04-25T15:30:14;11.10;99.90
17988;DHT22;9119;50.932;5.342;2023-04-25T15:32:41;11.20;99.90
17988;DHT22;9119;50.932;5.342;2023-04-25T15:35:07;11.30;99.90
17988;DHT22;9119;50.932;5.342;2023-04-25T15:37:34;11.20;99.90
17988;DHT22;9119;50.932;5.342;2023-04-25T15:40:06;11.30;99.90
17988;DHT22;9119;50.932;5.342;2023-04-25T15:42:41;11.00;99.90
17988;DHT22;9119;50.932;5.342;2023-04-25T15:45:09;11.20;99.90
17988;DHT22;9119;50.932;5.342;2023-04-25T15:47:36;11.10;99.90
17988;DHT22;9119;50.932;5.342;2023-04-25T15:50:03;11.10;99.90
17988;DHT22;9119;50.932;5.342;2023-04-25T15:52:31;11.20;99.90
17988;DHT22;9119;50.932;5.342;2023-04-25T15:54:57;10.90;99.90
17988;DHT22;9119;50.932;5.342;2023-04-25T15:57:23;10.90;99.90
17988;DHT22;9119;50.932;5.342;2023-04-25T15:59:49;10.70;99.90
17988;DHT22;9119;50.932;5.342;2023-04-25T16:02:16;10.80;99.90
17988;DHT22;9119;50.932;5.342;2023-04-25T16:04:42;11.00;99.90